createdAt,value
2022-12-16T00:04:13.913Z,45.6
2022-12-16T00:09:59.717Z,45.6
2022-12-16T00:15:27.588Z,45.5
2022-12-16T00:21:08.271Z,45.5
2022-12-16T00:26:46.132Z,45.4
2022-12-16T00:32:28.632Z,45.4
2022-12-16T00:38:10.043Z,45.4
2022-12-16T00:43:48.449Z,45.4
2022-12-16T00:49:12.703Z,45.4
2022-12-16T00:54:21.440Z,45.3
2022-12-16T01:00:00.880Z,45.3
2022-12-16T01:05:09.515Z,45.3
2022-12-16T01:10:03.964Z,45.3
2022-12-16T01:15:28.933Z,45.3
2022-12-16T01:20:20.825Z,45.2
2022-12-16T01:25:44.805Z,45.2
2022-12-16T01:31:23.586Z,45.1
2022-12-16T01:37:32.029Z,45.1
2022-12-16T01:43:13.929Z,45.1
2022-12-16T01:48:53.709Z,45.1
2022-12-16T01:54:15.301Z,45
2022-12-16T01:59:37.607Z,45
2022-12-16T02:05:01.964Z,44.9
2022-12-16T02:10:24.698Z,45.5
2022-12-16T02:15:46.883Z,46.6
2022-12-16T02:20:54.079Z,48.2
2022-12-16T02:25:47.436Z,49.8
2022-12-16T02:31:14.228Z,51.3
2022-12-16T02:36:28.814Z,52.9
2022-12-16T02:41:36.545Z,54.4
2022-12-16T02:47:18.065Z,56.1
2022-12-16T02:52:56.228Z,56.8
2022-12-16T02:58:02.639Z,56.8
2022-12-16T03:03:41.496Z,56.8
2022-12-16T03:09:19.036Z,56.8
2022-12-16T03:14:41.580Z,57.3
2022-12-16T03:20:19.994Z,58.9
2022-12-16T03:26:00.405Z,59.2
2022-12-16T03:31:22.604Z,59.2
2022-12-16T03:37:01.093Z,59.2
2022-12-16T03:42:23.235Z,59.1
2022-12-16T03:47:51.030Z,59.1
2022-12-16T03:53:30.402Z,59.1
2022-12-16T03:59:14.425Z,59
2022-12-16T04:04:55.319Z,59
2022-12-16T04:10:36.632Z,58.9
2022-12-16T04:16:16.918Z,58.9
2022-12-16T04:21:58.019Z,58.9
2022-12-16T04:27:36.066Z,58.8
2022-12-16T04:33:14.330Z,58.8
2022-12-16T04:38:52.830Z,58.7
2022-12-16T04:44:32.457Z,58.7
2022-12-16T04:49:58.790Z,58.6
2022-12-16T05:06:06.308Z,58.5
2022-12-16T05:11:46.299Z,58.4
2022-12-16T05:17:25.223Z,58.4
2022-12-16T05:23:07.653Z,58.3
2022-12-16T05:28:34.360Z,58.3
2022-12-16T05:39:38.589Z,58.2
2022-12-16T05:45:18.494Z,58.1
2022-12-16T05:51:01.069Z,58.1
2022-12-16T05:56:23.993Z,58.1
2022-12-16T06:02:02.276Z,58
2022-12-16T06:07:27.661Z,57.9
2022-12-16T06:12:49.897Z,57.9
2022-12-16T06:18:27.849Z,57.9
2022-12-16T06:24:09.899Z,57.8
2022-12-16T06:35:18.518Z,57.7
2022-12-16T06:40:59.490Z,57.7
2022-12-16T06:46:40.996Z,57.6
2022-12-16T06:52:24.718Z,57.6
2022-12-16T06:58:06.738Z,57.5
2022-12-16T07:03:17.538Z,57.4
2022-12-16T07:08:58.634Z,57.4
2022-12-16T07:14:42.580Z,57.4
2022-12-16T07:20:24.799Z,57.3
2022-12-16T07:26:14.100Z,57.3
2022-12-16T07:31:57.633Z,57.3
2022-12-16T07:37:40.691Z,57.2
2022-12-16T07:43:20.705Z,57.2
2022-12-16T07:49:01.261Z,57.1
2022-12-16T07:54:41.459Z,57.1
2022-12-16T08:00:18.815Z,57
2022-12-16T08:54:03.562Z,56.6
2022-12-16T08:59:44.910Z,56.5
2022-12-16T09:05:12.046Z,56.5
2022-12-16T09:10:58.396Z,56.4
2022-12-16T09:16:37.925Z,56.4
2022-12-16T09:22:21.082Z,56.4
2022-12-16T09:28:01.341Z,56.3
2022-12-16T09:33:43.630Z,56.3
2022-12-16T09:39:31.038Z,56.3
2022-12-16T09:45:14.213Z,56.3
2022-12-16T09:50:54.090Z,56.3
2022-12-16T09:56:34.548Z,56.7
2022-12-16T10:01:59.953Z,56.9
2022-12-16T10:07:41.033Z,57.1
2022-12-16T10:13:25.522Z,57.4
2022-12-16T10:19:11.989Z,57.7
2022-12-16T10:24:42.559Z,58
2022-12-16T10:30:29.111Z,58.3
2022-12-16T10:35:54.121Z,58.6
2022-12-16T10:41:43.799Z,58.9
2022-12-16T10:47:21.954Z,59.3
2022-12-16T10:53:20.658Z,59.7
2022-12-16T10:58:50.586Z,60.1
2022-12-16T11:04:32.759Z,60.4
2022-12-16T11:10:12.092Z,60.7
2022-12-16T11:16:19.766Z,60.9
2022-12-16T11:22:02.949Z,61.2
2022-12-16T11:27:45.368Z,61.4
2022-12-16T11:33:25.976Z,61.6
2022-12-16T11:39:03.719Z,61.8
2022-12-16T11:44:51.781Z,61.9
2022-12-16T11:50:32.365Z,62.1
2022-12-16T11:56:53.053Z,62.3
2022-12-16T12:02:35.692Z,62.3
2022-12-16T12:08:02.872Z,62.3
2022-12-16T12:13:46.406Z,62.3
2022-12-16T12:19:27.353Z,62.3
2022-12-16T12:25:12.794Z,62.2
2022-12-16T12:30:50.371Z,62.2
2022-12-16T12:36:36.171Z,62.1
2022-12-16T12:41:58.432Z,62.1
2022-12-16T12:47:55.970Z,62.1
2022-12-16T12:53:19.494Z,62.1
2022-12-16T12:58:50.009Z,62.1
2022-12-16T13:04:35.841Z,62
2022-12-16T13:10:15.560Z,62
2022-12-16T13:15:57.655Z,61.9
2022-12-16T13:21:45.919Z,61.9
2022-12-16T13:27:09.224Z,61.9
2022-12-16T13:32:50.267Z,61.8
2022-12-16T13:38:37.020Z,61.8
2022-12-16T13:44:15.421Z,61.7
2022-12-16T13:49:56.539Z,61.7
2022-12-16T13:55:41.269Z,61.6
2022-12-16T14:01:10.400Z,61.6
2022-12-16T14:06:49.799Z,61.6
2022-12-16T14:12:30.380Z,61.5
2022-12-16T14:17:55.159Z,61.4
2022-12-16T14:24:03.828Z,61.4
2022-12-16T14:29:43.516Z,61.4
2022-12-16T14:35:22.283Z,61.3
2022-12-16T14:41:05.615Z,61.3
2022-12-16T14:46:28.516Z,61.2
2022-12-16T14:52:14.605Z,61.1
2022-12-16T14:57:53.966Z,61.1
2022-12-16T15:03:37.445Z,61.1
2022-12-16T15:09:12.916Z,61
2022-12-16T15:14:53.503Z,61
2022-12-16T15:20:36.349Z,60.9
2022-12-16T15:26:20.545Z,60.9
2022-12-16T15:32:03.060Z,60.8
2022-12-16T15:37:26.153Z,60.8
2022-12-16T15:42:53.776Z,60.8
2022-12-16T15:48:31.663Z,60.7
2022-12-16T15:54:14.712Z,60.6
2022-12-16T15:59:57.780Z,60.6
2022-12-16T16:05:27.085Z,60.5
2022-12-16T16:11:11.232Z,60.5
2022-12-16T16:16:57.806Z,60.4
2022-12-16T16:22:38.688Z,60.4
2022-12-16T16:28:05.438Z,60.3
2022-12-16T16:33:28.605Z,60.3
2022-12-16T16:38:35.529Z,60.3
2022-12-16T16:44:16.536Z,60.2
2022-12-16T16:49:42.789Z,60.1
2022-12-16T16:55:08.664Z,60.1
2022-12-16T17:00:51.939Z,60.1
2022-12-16T17:06:39.045Z,60
2022-12-16T17:12:23.699Z,60
2022-12-16T17:18:10.009Z,59.9
2022-12-16T17:23:53.518Z,59.9
2022-12-16T17:29:37.874Z,59.8
2022-12-16T17:35:20.099Z,59.8
2022-12-16T17:40:48.370Z,59.8
2022-12-16T17:46:12.416Z,59.7
2022-12-16T17:51:53.686Z,59.6
2022-12-16T17:57:47.675Z,59.6
2022-12-16T18:03:11.843Z,59.5
2022-12-16T18:08:36.819Z,59.4
2022-12-16T18:13:44.344Z,59.4
2022-12-16T18:19:07.584Z,59.4
2022-12-16T18:24:29.898Z,59.3
2022-12-16T18:29:54.765Z,59.3
2022-12-16T18:35:37.550Z,59.2
2022-12-16T18:41:17.518Z,59.2
2022-12-16T18:47:02.802Z,59.1
2022-12-16T18:52:15.246Z,59.1
2022-12-16T18:57:39.774Z,59.1
2022-12-16T19:03:49.240Z,59
2022-12-16T19:09:26.501Z,58.9
2022-12-16T19:25:47.906Z,58.8
2022-12-16T23:36:49.798Z,56.4
2022-12-16T23:42:15.778Z,56.3
2022-12-16T23:48:01.972Z,56.3
2022-12-16T23:53:29.495Z,56.3
2022-12-16T23:59:07.078Z,56.2
